Terminal Aerodrome Forecast
Issued by NWS

Home | Current Version | Previous Version | Text Only | Print | Product List | Glossary On
Versions: 1 2 3 4 5 6 7 8 9 10 11 12 13 14 15 16
000
FTUS44 KLIX 012103 AAA
TAFMCB
TAF AMD
KMCB 012103Z 0121/0218 24008KT P6SM SCT030 BKN040
      TEMPO 0121/0123 VRB25KT 1SM TSRA BKN025CB
     FM020000 24008KT P6SM SCT250
     FM020200 22004KT P6SM SCT250
     FM021500 23009KT P6SM SCT035=

USA.gov is the U.S. government's official web portal to all federal, state and local government web resources and services.